Time;durP1;ratioP1;P1;durP2;ratioP2;P2;SDS_P1;SDS_P2;PMS_P1;PMS_P2;Temp;Humidity;BMP_temperature;BMP_pressure;BME280_temperature;BME280_humidity;BME280_pressure;Samples;Min_cycle;Max_cycle;Signal;HPM_P1;HPM_P2
2021/07/25 00:01:35;;;;;;;5.37;2.90;;;23.20;67.40;;;;;;2248866;56;21890;-69
2021/07/25 00:04:02;;;;;;;4.90;2.30;;;23.20;67.40;;;;;;2271687;55;21013;-71
2021/07/25 00:06:31;;;;;;;5.22;3.00;;;23.20;67.40;;;;;;2246780;55;21091;-69
2021/07/25 00:09:15;;;;;;;5.32;3.03;;;23.30;67.50;;;;;;2261660;55;20974;-69
2021/07/25 00:11:41;;;;;;;5.53;2.67;;;23.30;67.70;;;;;;2269260;55;21273;-68
2021/07/25 00:14:07;;;;;;;4.85;2.90;;;23.30;67.50;;;;;;2270193;55;20950;-68
2021/07/25 00:16:36;;;;;;;4.05;2.58;;;23.30;67.50;;;;;;2301399;55;20986;-67
2021/07/25 00:19:06;;;;;;;5.65;3.22;;;23.30;67.50;;;;;;2401224;55;21973;-68
2021/07/25 00:21:32;;;;;;;6.20;3.15;;;23.30;67.50;;;;;;2252392;56;21026;-68
2021/07/25 00:24:00;;;;;;;4.25;2.67;;;23.30;67.50;;;;;;2251193;55;21023;-71
2021/07/25 00:26:32;;;;;;;4.57;2.87;;;23.30;67.50;;;;;;2253413;56;21066;-68
2021/07/25 00:28:59;;;;;;;4.87;3.00;;;23.30;67.50;;;;;;2257729;55;21053;-69
2021/07/25 00:31:27;;;;;;;5.03;2.90;;;23.30;67.40;;;;;;2256360;59;21083;-69
2021/07/25 00:33:55;;;;;;;4.20;2.50;;;23.40;67.50;;;;;;2471939;55;21007;-68
2021/07/25 00:36:21;;;;;;;4.25;2.85;;;23.30;67.40;;;;;;2247466;55;20923;-67
2021/07/25 00:39:12;;;;;;;6.55;3.17;;;23.30;67.30;;;;;;2265747;55;21054;-67
2021/07/25 00:41:53;;;;;;;5.32;2.85;;;23.30;67.50;;;;;;2485776;55;20931;-69
2021/07/25 00:44:20;;;;;;;5.32;2.80;;;23.30;67.60;;;;;;2421557;54;21058;-69
2021/07/25 00:46:53;;;;;;;5.18;2.80;;;23.20;67.40;;;;;;2255288;55;20991;-67
2021/07/25 00:49:20;;;;;;;4.95;2.95;;;23.20;67.40;;;;;;2244910;56;20916;-70
2021/07/25 00:51:47;;;;;;;4.32;2.50;;;23.20;67.50;;;;;;2350488;55;21119;-70
2021/07/25 00:54:13;;;;;;;4.50;2.58;;;23.20;67.50;;;;;;2262272;55;20983;-69
2021/07/25 00:56:58;;;;;;;4.55;2.60;;;23.20;67.60;;;;;;2415065;55;20967;-69
2021/07/25 00:59:24;;;;;;;4.20;2.70;;;23.20;67.80;;;;;;2272354;55;22011;-67
2021/07/25 01:05:24;;;;;;;4.30;2.42;;;23.10;67.80;;;;;;2264179;55;20974;-69
2021/07/25 01:07:55;;;;;;;4.22;2.30;;;23.10;67.70;;;;;;2296507;55;20953;-69
2021/07/25 01:10:25;;;;;;;5.05;2.90;;;23.10;67.70;;;;;;2216250;55;21055;-68
2021/07/25 01:13:00;;;;;;;5.35;3.08;;;23.10;67.80;;;;;;2229632;55;20959;-69
2021/07/25 01:15:27;;;;;;;4.75;2.95;;;23.10;68.00;;;;;;2264852;55;20963;-69
2021/07/25 01:17:54;;;;;;;4.60;2.70;;;23.10;68.00;;;;;;2243946;56;20974;-69
2021/07/25 01:20:20;;;;;;;8.05;2.83;;;23.10;68.00;;;;;;2244434;56;21063;-69
2021/07/25 01:22:50;;;;;;;5.32;3.03;;;23.10;68.20;;;;;;2243998;56;20935;-68
2021/07/25 01:25:17;;;;;;;5.57;3.00;;;23.10;68.30;;;;;;2244197;56;21880;-67
2021/07/25 01:28:06;;;;;;;4.57;3.00;;;23.10;68.30;;;;;;2264174;55;20970;-69
2021/07/25 01:30:37;;;;;;;5.43;2.78;;;23.20;68.80;;;;;;2223344;56;20979;-67
2021/07/25 01:33:11;;;;;;;5.03;3.20;;;23.20;68.50;;;;;;2223203;56;21086;-68
2021/07/25 01:35:37;;;;;;;5.15;3.12;;;23.20;68.60;;;;;;2383469;56;21026;-68
2021/07/25 01:38:08;;;;;;;6.15;4.03;;;23.20;68.60;;;;;;2244356;56;20939;-69
2021/07/25 01:40:34;;;;;;;6.90;3.80;;;23.20;68.70;;;;;;2220382;56;21510;-68
2021/07/25 01:43:01;;;;;;;5.43;3.10;;;23.20;68.60;;;;;;2264898;55;20954;-68
2021/07/25 01:45:29;;;;;;;6.10;3.40;;;23.20;68.70;;;;;;2259546;55;20930;-68
2021/07/25 01:47:56;;;;;;;6.22;3.25;;;23.20;68.80;;;;;;2249945;55;21017;-71
2021/07/25 01:50:23;;;;;;;4.82;3.35;;;23.20;68.80;;;;;;2243964;56;20967;-71
2021/07/25 01:52:49;;;;;;;6.18;3.25;;;23.20;68.80;;;;;;2328310;55;21299;-69
2021/07/25 01:55:15;;;;;;;6.80;3.95;;;23.20;68.70;;;;;;2244394;56;20975;-70
2021/07/25 01:57:43;;;;;;;6.68;3.40;;;23.20;68.70;;;;;;2244240;56;21990;-69
2021/07/25 02:00:12;;;;;;;5.70;3.30;;;23.20;68.70;;;;;;2244951;55;21884;-69
2021/07/25 02:02:38;;;;;;;5.57;3.05;;;23.20;68.70;;;;;;2486709;54;20942;-68
2021/07/25 02:05:05;;;;;;;5.22;2.80;;;23.20;68.60;;;;;;2250503;55;21430;-69
2021/07/25 02:07:32;;;;;;;4.75;3.22;;;23.20;69.40;;;;;;2243662;56;22021;-68
2021/07/25 02:09:58;;;;;;;5.90;3.20;;;23.20;69.40;;;;;;2263203;55;21008;-67
2021/07/25 02:12:24;;;;;;;9.48;3.50;;;23.20;68.70;;;;;;2245878;55;20975;-71
2021/07/25 02:14:51;;;;;;;3.83;2.28;;;23.20;68.80;;;;;;2247026;56;21075;-68
2021/07/25 02:17:17;;;;;;;6.00;3.10;;;23.20;68.80;;;;;;2244667;55;20987;-67
2021/07/25 02:19:43;;;;;;;5.20;2.90;;;23.20;68.80;;;;;;2262908;55;20910;-68
2021/07/25 02:22:23;;;;;;;5.78;2.97;;;23.20;68.80;;;;;;2455347;55;20990;-71
2021/07/25 02:24:50;;;;;;;6.15;3.17;;;23.20;68.90;;;;;;2263354;55;21018;-68
2021/07/25 02:27:16;;;;;;;4.85;3.08;;;23.20;68.80;;;;;;2246999;55;21062;-70
2021/07/25 02:29:43;;;;;;;5.15;3.05;;;23.20;68.70;;;;;;2244679;56;21006;-71
2021/07/25 02:32:10;;;;;;;4.87;3.03;;;23.20;68.70;;;;;;2252724;56;21046;-68
2021/07/25 02:38:04;;;;;;;3.60;2.20;;;23.10;68.60;;;;;;2387341;55;20962;-70
2021/07/25 02:40:31;;;;;;;4.47;2.17;;;23.10;68.50;;;;;;2244562;55;21031;-68
2021/07/25 02:43:24;;;;;;;5.47;2.25;;;23.10;68.50;;;;;;2266517;55;20958;-71
2021/07/25 02:45:51;;;;;;;3.37;2.00;;;23.10;68.40;;;;;;2254042;55;21026;-68
2021/07/25 02:48:17;;;;;;;3.95;1.92;;;23.10;68.40;;;;;;2253891;55;20935;-67
2021/07/25 02:50:46;;;;;;;3.30;1.80;;;23.10;68.40;;;;;;2244951;56;20959;-68
2021/07/25 02:53:12;;;;;;;3.42;1.83;;;23.10;68.30;;;;;;2247300;56;20987;-70
2021/07/25 02:55:39;;;;;;;3.30;1.73;;;23.10;68.20;;;;;;2245090;55;21046;-69
2021/07/25 02:58:05;;;;;;;2.90;1.65;;;23.00;68.10;;;;;;2480367;54;20978;-71
2021/07/25 03:00:32;;;;;;;3.20;1.73;;;23.00;68.10;;;;;;2266348;55;20980;-69
2021/07/25 03:02:58;;;;;;;3.67;2.25;;;23.00;68.00;;;;;;2485986;55;20984;-68
2021/07/25 03:05:29;;;;;;;4.47;2.15;;;23.00;68.00;;;;;;2355094;55;20959;-68
2021/07/25 03:07:56;;;;;;;3.40;1.55;;;23.00;68.00;;;;;;2481489;55;20933;-68
2021/07/25 03:10:28;;;;;;;3.30;1.92;;;23.00;68.00;;;;;;2259568;55;21008;-70
2021/07/25 03:12:54;;;;;;;;;;;22.90;67.80;;;;;;2253958;55;20955;-70
2021/07/25 03:15:21;;;;;;;3.67;1.35;;;22.90;67.60;;;;;;2253153;55;20109;-68
2021/07/25 03:17:47;;;;;;;3.20;1.73;;;22.90;67.70;;;;;;2256239;55;20943;-68
2021/07/25 03:20:15;;;;;;;3.75;1.80;;;22.90;67.80;;;;;;2251676;55;21042;-68
2021/07/25 03:22:50;;;;;;;3.47;1.92;;;22.80;67.70;;;;;;2129174;55;11713193;-68
2021/07/25 03:25:17;;;;;;;3.00;1.70;;;22.80;67.90;;;;;;2252513;55;20982;-68
2021/07/25 03:27:43;;;;;;;3.35;1.80;;;22.80;67.90;;;;;;2266915;55;20982;-68
2021/07/25 03:30:11;;;;;;;3.30;1.55;;;22.80;67.90;;;;;;2484617;55;22135;-68
2021/07/25 03:32:37;;;;;;;3.03;1.60;;;22.70;67.80;;;;;;2351885;54;20997;-68
2021/07/25 03:35:05;;;;;;;2.97;1.48;;;22.70;67.90;;;;;;2266006;55;20950;-70
2021/07/25 03:37:31;;;;;;;3.15;1.48;;;22.70;67.90;;;;;;2472031;55;20959;-69
2021/07/25 03:40:19;;;;;;;2.50;1.33;;;22.70;67.90;;;;;;2373883;55;21029;-68
2021/07/25 03:42:45;;;;;;;2.25;1.12;;;22.70;67.70;;;;;;2247192;56;20931;-70
2021/07/25 03:45:12;;;;;;;2.97;1.55;;;22.60;67.60;;;;;;2264476;55;20943;-69
2021/07/25 03:47:41;;;;;;;2.90;1.40;;;22.60;67.60;;;;;;2468659;55;20960;-68
2021/07/25 03:50:08;;;;;;;3.55;1.40;;;22.60;67.60;;;;;;2468378;56;20964;-69
2021/07/25 03:52:36;;;;;;;4.60;1.62;;;22.60;67.60;;;;;;2242722;55;20960;-72
2021/07/25 03:55:06;;;;;;;3.05;1.40;;;22.50;67.50;;;;;;2246657;56;20975;-68
2021/07/25 03:57:35;;;;;;;2.83;1.25;;;22.50;67.50;;;;;;2261526;55;21034;-68
2021/07/25 04:00:03;;;;;;;3.33;1.80;;;22.50;67.40;;;;;;2263924;55;20974;-68
2021/07/25 04:02:29;;;;;;;4.22;1.23;;;22.50;67.40;;;;;;2262574;55;20962;-69
2021/07/25 04:04:56;;;;;;;3.00;1.55;;;22.50;67.40;;;;;;2246614;55;21479;-67
2021/07/25 04:07:31;;;;;;;3.00;1.45;;;22.40;67.30;;;;;;2245654;56;21955;-68
2021/07/25 04:09:58;;;;;;;2.90;1.52;;;22.40;67.40;;;;;;2243511;56;20947;-70
2021/07/25 04:12:25;;;;;;;2.78;1.40;;;22.30;67.30;;;;;;2259443;55;21089;-68
2021/07/25 04:14:54;;;;;;;3.20;1.60;;;22.30;67.40;;;;;;2245801;55;21056;-69
2021/07/25 04:20:50;;;;;;;3.00;1.60;;;22.30;67.80;;;;;;2242694;56;20975;-68
2021/07/25 04:23:17;;;;;;;2.85;1.37;;;22.30;67.90;;;;;;2328317;55;22006;-72
2021/07/25 04:25:44;;;;;;;4.53;1.95;;;22.20;68.00;;;;;;2242623;56;22152;-70
2021/07/25 04:28:11;;;;;;;3.83;1.92;;;22.20;68.00;;;;;;2256562;55;21402;-69
2021/07/25 04:30:40;;;;;;;3.17;1.60;;;22.30;68.30;;;;;;2257801;55;20995;-68
2021/07/25 04:33:17;;;;;;;3.00;1.65;;;22.20;68.30;;;;;;2248536;56;21054;-69
2021/07/25 04:35:44;;;;;;;3.45;1.83;;;22.30;68.50;;;;;;2263440;55;21021;-68
2021/07/25 04:38:14;;;;;;;3.37;1.70;;;22.30;68.60;;;;;;2473701;55;21888;-69
2021/07/25 04:41:14;;;;;;;3.22;1.60;;;22.30;68.60;;;;;;2261745;55;21121;-69
2021/07/25 04:43:41;;;;;;;2.60;1.30;;;22.30;68.60;;;;;;2475398;54;21026;-68
2021/07/25 04:46:11;;;;;;;2.67;1.40;;;22.30;68.60;;;;;;2254005;55;20955;-72
2021/07/25 04:49:06;;;;;;;2.95;1.50;;;22.30;68.70;;;;;;2241775;55;21541;-68
2021/07/25 04:51:38;;;;;;;4.47;1.55;;;22.30;68.70;;;;;;2265307;55;21018;-69
2021/07/25 04:54:09;;;;;;;2.60;1.30;;;22.30;68.70;;;;;;2312915;55;20989;-70
2021/07/25 04:56:48;;;;;;;2.65;1.30;;;22.40;68.90;;;;;;2245601;55;21032;-69
2021/07/25 04:59:30;;;;;;;2.83;1.05;;;22.40;69.00;;;;;;2473960;55;20962;-69
2021/07/25 05:02:00;;;;;;;2.78;1.40;;;22.40;69.00;;;;;;2247450;55;20931;-71
2021/07/25 05:04:28;;;;;;;2.42;1.20;;;22.40;69.00;;;;;;2251498;56;20974;-71
2021/07/25 05:06:56;;;;;;;3.37;1.60;;;22.50;69.10;;;;;;2240092;55;21033;-66
2021/07/25 05:09:22;;;;;;;3.60;1.70;;;22.50;69.10;;;;;;2256591;55;21021;-68
2021/07/25 05:12:00;;;;;;;3.40;1.70;;;22.50;69.00;;;;;;2260057;55;21052;-70
2021/07/25 05:14:41;;;;;;;2.72;1.30;;;22.60;69.20;;;;;;2346795;55;21046;-68
2021/07/25 05:23:56;;;;;;;2.65;1.62;;;22.60;69.10;;;;;;2254319;55;20991;-72
2021/07/25 05:26:24;;;;;;;4.07;1.80;;;22.70;68.70;;;;;;2267337;55;21768;-68
2021/07/25 05:28:56;;;;;;;3.40;1.77;;;22.70;69.00;;;;;;2257834;55;21088;-69
2021/07/25 05:31:31;;;;;;;2.97;1.75;;;22.70;69.10;;;;;;2249021;55;21797;-70
2021/07/25 05:34:27;;;;;;;4.00;1.70;;;22.70;69.20;;;;;;2242670;56;21040;-69
2021/07/25 05:36:54;;;;;;;3.92;1.65;;;22.80;69.50;;;;;;2257213;55;21370;-68
2021/07/25 05:39:21;;;;;;;3.03;1.65;;;22.80;69.60;;;;;;2248494;55;20951;-69
2021/07/25 05:42:11;;;;;;;3.37;1.77;;;22.90;69.80;;;;;;2467213;55;20962;-72
2021/07/25 05:44:38;;;;;;;3.05;1.75;;;22.90;69.70;;;;;;2242355;56;20971;-69
2021/07/25 05:47:04;;;;;;;3.28;1.70;;;23.00;69.90;;;;;;2311136;55;20982;-72
2021/07/25 05:49:31;;;;;;;4.03;2.10;;;23.00;69.80;;;;;;2457134;55;21027;-71
2021/07/25 05:52:00;;;;;;;4.30;2.08;;;23.10;69.80;;;;;;2241691;56;20963;-70
2021/07/25 05:54:28;;;;;;;3.20;1.75;;;23.10;69.70;;;;;;2244774;56;20963;-68
2021/07/25 05:57:40;;;;;;;2.95;1.62;;;23.20;69.70;;;;;;2436861;55;20955;-68
2021/07/25 06:00:06;;;;;;;4.10;1.58;;;23.20;69.50;;;;;;2244649;56;20959;-70
2021/07/25 06:02:41;;;;;;;3.35;1.75;;;23.20;69.40;;;;;;2248621;56;20954;-69
2021/07/25 06:05:10;;;;;;;3.10;1.67;;;23.30;69.40;;;;;;2259892;55;21115;-69
2021/07/25 06:07:37;;;;;;;3.50;1.45;;;23.30;69.40;;;;;;2242822;55;20927;-69
2021/07/25 06:10:04;;;;;;;3.95;1.50;;;23.40;69.50;;;;;;2245251;56;20983;-69
2021/07/25 06:15:58;;;;;;;2.85;1.30;;;23.50;69.10;;;;;;2294549;56;21549;-70
2021/07/25 06:18:24;;;;;;;3.20;1.77;;;23.50;69.30;;;;;;2267283;55;20938;-69
2021/07/25 06:20:50;;;;;;;3.53;1.17;;;23.50;69.20;;;;;;2239973;55;20963;-70
2021/07/25 06:23:17;;;;;;;2.85;1.42;;;23.60;69.10;;;;;;2278348;55;22302;-70
2021/07/25 06:25:43;;;;;;;2.78;1.50;;;23.60;69.10;;;;;;2241482;56;21574;-70
2021/07/25 06:28:10;;;;;;;3.17;1.70;;;23.70;69.20;;;;;;2244151;56;20951;-67
2021/07/25 06:30:37;;;;;;;2.85;1.42;;;23.70;69.10;;;;;;2242274;55;21075;-71
2021/07/25 06:33:08;;;;;;;3.87;2.03;;;23.70;69.00;;;;;;2292692;56;20970;-69
2021/07/25 06:35:47;;;;;;;3.03;1.77;;;23.80;68.90;;;;;;2232482;56;21001;-69
2021/07/25 06:38:18;;;;;;;3.65;1.62;;;23.80;68.60;;;;;;2244381;55;20943;-69
2021/07/25 06:44:18;;;;;;;2.65;1.58;;;23.90;69.10;;;;;;2257207;55;21041;-70
2021/07/25 06:46:46;;;;;;;2.90;1.52;;;23.90;68.50;;;;;;2248974;55;20977;-71
2021/07/25 06:49:14;;;;;;;3.42;1.77;;;23.90;68.50;;;;;;2257849;55;20970;-70
2021/07/25 06:51:40;;;;;;;3.72;2.10;;;24.00;68.70;;;;;;2264283;55;21006;-72
2021/07/25 06:54:08;;;;;;;3.65;2.20;;;24.00;68.60;;;;;;2226473;56;20975;-70
2021/07/25 06:56:34;;;;;;;3.53;2.03;;;24.00;68.50;;;;;;2331064;55;20983;-69
2021/07/25 06:59:01;;;;;;;3.45;1.67;;;24.00;68.30;;;;;;2276396;55;20958;-70
2021/07/25 07:02:13;;;;;;;3.70;2.08;;;24.00;68.30;;;;;;2304870;56;20994;-69
2021/07/25 07:08:08;;;;;;;4.32;2.00;;;24.10;68.40;;;;;;2429222;55;20975;-72
2021/07/25 07:10:39;;;;;;;7.00;2.30;;;24.20;68.70;;;;;;2261764;55;22042;-69
2021/07/25 07:13:07;;;;;;;5.07;1.80;;;24.20;68.60;;;;;;2429109;54;21065;-68
2021/07/25 07:15:33;;;;;;;3.50;1.75;;;24.30;68.60;;;;;;2242430;55;20975;-69
2021/07/25 07:18:04;;;;;;;4.28;1.92;;;24.30;68.50;;;;;;2415854;54;20978;-72
2021/07/25 07:20:54;;;;;;;4.05;2.22;;;24.40;68.50;;;;;;2264998;55;20946;-68
2021/07/25 07:23:24;;;;;;;4.12;2.40;;;24.40;67.90;;;;;;2387321;54;21006;-70
2021/07/25 07:25:52;;;;;;;5.78;2.40;;;24.40;68.10;;;;;;2462403;55;20991;-69
2021/07/25 07:28:19;;;;;;;3.80;2.05;;;24.50;68.40;;;;;;2262315;55;20950;-69
2021/07/25 07:30:47;;;;;;;3.35;1.80;;;24.50;68.50;;;;;;2244543;55;20939;-71
2021/07/25 07:33:18;;;;;;;4.35;1.77;;;24.50;68.50;;;;;;2426671;55;20967;-70
2021/07/25 07:39:12;;;;;;;2.53;1.45;;;24.70;68.80;;;;;;2286156;55;21061;-71
2021/07/25 07:41:42;;;;;;;3.50;1.70;;;24.80;69.20;;;;;;2266877;55;21097;-70
2021/07/25 07:44:10;;;;;;;3.42;1.77;;;24.90;69.80;;;;;;2247333;55;20979;-69
2021/07/25 07:46:39;;;;;;;3.20;1.80;;;24.90;68.80;;;;;;2259647;55;20997;-75
2021/07/25 07:49:06;;;;;;;4.18;1.80;;;25.00;68.80;;;;;;2312671;54;21013;-74
2021/07/25 07:51:32;;;;;;;4.20;1.80;;;25.10;68.50;;;;;;2251001;55;20939;-74
2021/07/25 07:53:59;;;;;;;4.45;1.80;;;25.20;67.80;;;;;;2248091;55;22010;-75
2021/07/25 07:56:26;;;;;;;3.03;1.83;;;25.20;67.50;;;;;;2241801;55;21400;-74
2021/07/25 07:59:05;;;;;;;4.28;1.70;;;25.20;67.10;;;;;;2250751;55;21121;-73
2021/07/25 08:01:31;;;;;;;2.67;1.55;;;25.30;66.50;;;;;;2418061;55;21022;-75
2021/07/25 08:03:58;;;;;;;3.00;1.70;;;25.30;67.00;;;;;;2255683;55;21063;-71
2021/07/25 08:06:25;;;;;;;3.22;1.40;;;25.30;67.00;;;;;;2239953;56;20991;-71
2021/07/25 08:08:51;;;;;;;3.37;1.55;;;25.40;67.10;;;;;;2299469;55;22159;-70
2021/07/25 08:11:20;;;;;;;2.45;1.33;;;25.40;67.00;;;;;;2313908;55;21003;-70
2021/07/25 08:13:47;;;;;;;2.90;1.50;;;25.40;66.80;;;;;;2262267;55;20980;-73
2021/07/25 08:16:14;;;;;;;4.45;1.60;;;25.40;66.70;;;;;;2256456;55;20998;-70
2021/07/25 08:18:41;;;;;;;2.90;1.60;;;25.50;66.60;;;;;;2318285;55;21053;-71
2021/07/25 08:21:10;;;;;;;3.67;1.77;;;25.50;66.50;;;;;;2256139;55;20942;-74
2021/07/25 08:23:37;;;;;;;3.97;1.70;;;25.50;66.40;;;;;;2255364;55;20993;-72
2021/07/25 08:26:03;;;;;;;4.10;1.65;;;25.50;66.60;;;;;;2251383;55;21078;-73
2021/07/25 08:28:33;;;;;;;3.10;1.50;;;25.50;66.50;;;;;;2464360;55;20942;-73
2021/07/25 08:30:59;;;;;;;3.10;1.60;;;25.50;66.30;;;;;;2260759;55;20985;-73
2021/07/25 08:33:28;;;;;;;3.05;1.73;;;25.50;66.30;;;;;;2304774;55;20993;-75
2021/07/25 08:35:54;;;;;;;3.20;1.70;;;25.60;66.40;;;;;;2261780;55;21017;-73
2021/07/25 08:38:21;;;;;;;3.30;1.83;;;25.60;66.40;;;;;;2251185;55;21006;-75
2021/07/25 08:41:14;;;;;;;3.65;1.67;;;25.60;66.30;;;;;;2240780;56;21486;-72
2021/07/25 08:43:45;;;;;;;3.67;2.05;;;25.60;66.40;;;;;;2364761;55;21694;-71
2021/07/25 08:46:19;;;;;;;3.60;2.03;;;25.70;66.70;;;;;;2249056;55;20979;-72
2021/07/25 08:48:50;;;;;;;4.28;2.40;;;25.70;66.60;;;;;;2467518;55;21065;-72
2021/07/25 08:51:21;;;;;;;4.75;2.40;;;25.70;66.40;;;;;;2259559;55;21996;-73
2021/07/25 08:54:09;;;;;;;3.00;1.67;;;25.80;66.50;;;;;;2331269;55;21784;-73
2021/07/25 08:56:35;;;;;;;3.78;1.80;;;25.90;66.10;;;;;;2273331;55;21001;-72
2021/07/25 08:59:07;;;;;;;3.85;1.80;;;25.90;66.30;;;;;;2248208;55;20959;-70
2021/07/25 09:01:38;;;;;;;2.80;1.53;;;25.90;66.00;;;;;;2223917;56;21047;-72
2021/07/25 09:07:32;;;;;;;3.42;1.92;;;26.00;64.70;;;;;;2354842;54;21491;-73
2021/07/25 09:10:09;;;;;;;3.22;1.83;;;26.10;65.30;;;;;;2463541;55;21071;-70
2021/07/25 09:12:36;;;;;;;3.83;2.00;;;26.00;64.50;;;;;;2244198;55;20958;-68
2021/07/25 09:15:13;;;;;;;4.20;2.30;;;26.00;64.20;;;;;;2401176;54;21103;-68
2021/07/25 09:17:41;;;;;;;3.60;2.00;;;26.00;63.60;;;;;;2262829;55;20981;-69
2021/07/25 09:20:23;;;;;;;3.22;1.85;;;26.00;64.30;;;;;;2241459;55;21411;-68
2021/07/25 09:23:16;;;;;;;3.08;1.70;;;26.00;64.10;;;;;;2257281;56;22005;-67
2021/07/25 09:25:53;;;;;;;3.47;1.80;;;26.10;64.20;;;;;;2262153;55;20950;-66
2021/07/25 09:28:33;;;;;;;3.30;1.90;;;26.10;64.60;;;;;;2241923;55;20963;-69
2021/07/25 09:34:35;;;;;;;2.85;1.45;;;26.20;64.30;;;;;;2466597;56;20962;-68
2021/07/25 09:37:38;;;;;;;3.37;1.75;;;26.30;64.50;;;;;;2328556;55;21795;-68
2021/07/25 09:40:08;;;;;;;;;;;26.30;63.60;;;;;;2248208;55;20967;-66
2021/07/25 09:42:36;;;;;;;2.65;1.50;;;26.40;64.20;;;;;;2252525;55;20105;-66
2021/07/25 09:45:03;;;;;;;3.67;1.67;;;26.50;64.60;;;;;;2272017;55;20934;-65
2021/07/25 09:47:41;;;;;;;3.53;1.90;;;26.60;64.40;;;;;;2254687;55;21053;-67
2021/07/25 09:50:11;;;;;;;3.05;1.87;;;26.60;64.00;;;;;;2345976;56;21038;-69
2021/07/25 09:52:38;;;;;;;3.22;1.42;;;26.70;64.30;;;;;;2238408;56;20973;-67
2021/07/25 09:55:08;;;;;;;3.80;1.95;;;26.80;64.20;;;;;;2259402;55;20977;-68
2021/07/25 09:57:37;;;;;;;3.60;1.70;;;26.90;63.90;;;;;;2263298;55;20970;-69
2021/07/25 10:00:16;;;;;;;2.92;1.70;;;26.90;63.80;;;;;;2457242;54;22051;-67
2021/07/25 10:02:45;;;;;;;3.15;1.67;;;27.00;62.80;;;;;;2401545;56;20979;-67
2021/07/25 10:05:16;;;;;;;2.33;1.20;;;27.00;63.50;;;;;;2354514;54;20966;-68
2021/07/25 10:07:44;;;;;;;3.22;1.60;;;27.10;63.60;;;;;;2232702;56;21066;-68
2021/07/25 10:10:13;;;;;;;2.97;1.42;;;27.10;64.10;;;;;;2313772;55;21012;-66
2021/07/25 10:12:40;;;;;;;3.37;1.50;;;27.20;64.10;;;;;;2261308;55;22030;-71
2021/07/25 10:15:20;;;;;;;4.32;1.70;;;27.20;63.70;;;;;;2489577;54;21517;-67
2021/07/25 10:17:49;;;;;;;3.87;1.75;;;27.30;62.60;;;;;;2243502;55;21504;-68
2021/07/25 10:20:21;;;;;;;3.12;1.55;;;27.40;62.80;;;;;;2221640;56;20978;-69
2021/07/25 10:22:49;;;;;;;4.47;1.50;;;27.50;62.50;;;;;;2244347;55;21003;-67
2021/07/25 10:25:16;;;;;;;2.75;1.52;;;27.50;62.20;;;;;;2375557;55;21072;-69
2021/07/25 10:27:45;;;;;;;4.80;1.40;;;27.60;62.00;;;;;;2241117;55;21003;-69
2021/07/25 10:30:12;;;;;;;3.65;1.67;;;27.60;61.50;;;;;;2247976;55;20931;-68
2021/07/25 10:32:39;;;;;;;2.70;1.45;;;27.70;61.50;;;;;;2254756;55;21023;-68
2021/07/25 10:35:08;;;;;;;2.87;1.52;;;27.70;61.60;;;;;;2272216;55;20961;-68
2021/07/25 10:37:40;;;;;;;3.22;1.55;;;27.70;61.00;;;;;;2261449;55;21001;-68
2021/07/25 10:40:09;;;;;;;2.97;1.70;;;27.70;60.50;;;;;;2265629;55;21007;-70
2021/07/25 10:42:44;;;;;;;2.65;1.42;;;27.80;61.10;;;;;;2241169;56;21047;-67
2021/07/25 10:45:12;;;;;;;4.40;1.70;;;27.80;60.50;;;;;;2241068;56;20971;-67
2021/07/25 10:47:39;;;;;;;3.95;1.87;;;27.80;61.50;;;;;;2241176;56;21102;-66
2021/07/25 10:50:18;;;;;;;2.85;1.45;;;27.80;60.70;;;;;;2465975;55;21590;-69
2021/07/25 10:53:21;;;;;;;2.87;1.48;;;27.90;60.50;;;;;;2263661;55;20953;-69
2021/07/25 10:55:50;;;;;;;3.45;1.67;;;28.00;59.90;;;;;;2219483;56;20971;-67
2021/07/25 10:58:18;;;;;;;3.08;1.83;;;28.00;60.90;;;;;;2248394;56;20959;-69
2021/07/25 11:00:55;;;;;;;3.10;1.80;;;28.10;60.70;;;;;;2249377;56;20966;-67
2021/07/25 11:03:54;;;;;;;3.67;1.60;;;28.10;59.80;;;;;;2237146;56;22239;-67
2021/07/25 11:06:21;;;;;;;3.85;1.70;;;28.20;58.70;;;;;;2346627;54;21966;-68
2021/07/25 11:08:50;;;;;;;5.78;1.92;;;28.20;59.70;;;;;;2260707;55;21050;-68
2021/07/25 11:12:17;;;;;;;3.58;1.75;;;28.20;59.50;;;;;;2465773;55;21035;-66
2021/07/25 11:15:44;;;;;;;3.50;1.48;;;28.30;58.90;;;;;;2464859;56;21047;-68
2021/07/25 11:18:12;;;;;;;2.72;1.35;;;28.40;59.00;;;;;;2270115;55;22112;-68
2021/07/25 11:22:41;;;;;;;2.65;1.33;;;28.40;59.90;;;;;;2258647;55;20933;-68
2021/07/25 11:25:08;;;;;;;3.17;1.23;;;28.50;59.30;;;;;;2241078;56;20967;-67
2021/07/25 11:27:47;;;;;;;3.10;1.80;;;28.60;60.60;;;;;;2263499;55;21026;-67
2021/07/25 11:30:13;;;;;;;3.50;1.77;;;28.70;58.70;;;;;;2284896;54;21021;-66
2021/07/25 11:32:40;;;;;;;2.47;1.30;;;28.70;59.70;;;;;;2272211;55;20982;-68
2021/07/25 11:35:07;;;;;;;4.20;1.77;;;28.80;59.60;;;;;;2254173;55;21138;-68
2021/07/25 11:37:40;;;;;;;4.05;1.73;;;28.80;58.60;;;;;;2258832;55;20986;-70
2021/07/25 11:40:09;;;;;;;3.42;1.70;;;28.80;58.10;;;;;;2248696;55;20963;-68
2021/07/25 11:42:36;;;;;;;3.40;1.80;;;28.90;57.90;;;;;;2256234;55;21110;-68
2021/07/25 11:45:06;;;;;;;2.92;1.62;;;28.90;58.00;;;;;;2249732;55;21016;-68
2021/07/25 11:47:35;;;;;;;3.72;1.70;;;28.90;57.80;;;;;;2261088;55;20946;-72
2021/07/25 11:50:02;;;;;;;3.58;1.55;;;29.00;58.00;;;;;;2246002;55;21008;-68
2021/07/25 11:52:28;;;;;;;3.87;1.75;;;29.00;58.30;;;;;;2268638;55;21004;-69
2021/07/25 11:54:55;;;;;;;3.30;1.92;;;29.00;58.00;;;;;;2480459;54;21120;-67
2021/07/25 11:57:25;;;;;;;4.25;1.70;;;29.10;57.50;;;;;;2486147;54;21057;-70
2021/07/25 11:59:59;;;;;;;3.72;1.60;;;29.10;57.80;;;;;;2424116;54;21082;-68
2021/07/25 12:02:27;;;;;;;3.58;1.85;;;29.20;57.30;;;;;;2277923;55;21982;-72
2021/07/25 12:04:58;;;;;;;3.08;1.75;;;29.30;57.00;;;;;;2264755;55;20922;-69
2021/07/25 12:07:35;;;;;;;4.05;1.85;;;29.30;57.00;;;;;;2240401;55;21122;-67
2021/07/25 12:10:03;;;;;;;3.33;1.50;;;29.30;56.60;;;;;;2309529;55;22040;-69
2021/07/25 12:12:32;;;;;;;2.95;1.40;;;29.40;56.70;;;;;;2249363;55;21963;-70
2021/07/25 12:15:00;;;;;;;2.80;1.52;;;29.40;56.50;;;;;;2350322;55;24982;-69
2021/07/25 12:17:50;;;;;;;2.55;1.30;;;29.50;56.50;;;;;;2257863;55;21192;-70
2021/07/25 12:20:37;;;;;;;3.30;1.62;;;29.50;55.70;;;;;;2241155;56;21039;-71
2021/07/25 12:23:06;;;;;;;2.83;1.60;;;29.60;55.40;;;;;;2241509;56;20971;-69
2021/07/25 12:25:52;;;;;;;3.90;1.45;;;29.70;56.10;;;;;;2220183;56;21067;-71
2021/07/25 12:28:23;;;;;;;3.75;1.70;;;29.70;55.80;;;;;;2241170;56;21043;-70
2021/07/25 12:30:57;;;;;;;4.47;2.00;;;29.80;54.70;;;;;;2465891;54;20962;-71
2021/07/25 12:33:26;;;;;;;3.08;1.70;;;29.80;54.50;;;;;;2264697;55;20945;-69
2021/07/25 12:35:52;;;;;;;3.17;1.60;;;29.80;54.00;;;;;;2467999;55;21002;-69
2021/07/25 12:38:23;;;;;;;3.08;1.50;;;29.90;53.80;;;;;;2313635;55;20975;-73
2021/07/25 12:40:54;;;;;;;4.00;1.42;;;29.80;54.00;;;;;;2240641;55;21086;-76
2021/07/25 12:43:23;;;;;;;3.17;1.23;;;29.80;54.00;;;;;;2363328;55;21062;-74
2021/07/25 12:45:50;;;;;;;3.95;1.62;;;29.80;54.60;;;;;;2466246;55;20986;-75
2021/07/25 12:48:24;;;;;;;3.90;1.50;;;29.90;54.30;;;;;;2253837;55;21112;-70
2021/07/25 12:51:41;;;;;;;3.70;1.50;;;29.80;53.90;;;;;;2251965;55;21031;-72
2021/07/25 12:54:12;;;;;;;5.25;1.50;;;29.90;53.30;;;;;;2241862;56;20962;-75
2021/07/25 12:56:41;;;;;;;2.92;1.30;;;29.90;54.80;;;;;;2261068;55;20937;-75
2021/07/25 12:59:11;;;;;;;2.60;1.25;;;30.00;54.70;;;;;;2265157;55;21962;-69
2021/07/25 13:04:33;;;;;;;3.22;1.30;;;30.10;53.40;;;;;;2252406;55;20995;-70
2021/07/25 13:06:59;;;;;;;2.72;1.20;;;30.10;53.70;;;;;;2260083;55;20993;-69
2021/07/25 13:09:27;;;;;;;2.22;1.02;;;30.10;53.90;;;;;;2323851;55;21010;-69
2021/07/25 13:11:56;;;;;;;2.95;1.40;;;30.10;53.80;;;;;;2269737;55;20951;-69
2021/07/25 13:14:29;;;;;;;3.10;1.50;;;30.10;53.70;;;;;;2246820;55;21083;-73
2021/07/25 13:16:57;;;;;;;2.72;1.40;;;30.00;52.90;;;;;;2240986;56;21095;-71
2021/07/25 13:19:24;;;;;;;2.60;1.33;;;30.00;53.40;;;;;;2263163;55;21520;-71
2021/07/25 13:21:51;;;;;;;2.67;1.42;;;30.00;53.50;;;;;;2241844;55;20967;-68
2021/07/25 13:24:20;;;;;;;2.95;1.45;;;30.00;53.30;;;;;;2250419;55;21026;-69
2021/07/25 13:26:46;;;;;;;3.28;1.60;;;30.00;53.10;;;;;;2242177;56;20976;-70
2021/07/25 13:29:14;;;;;;;3.05;1.40;;;30.00;53.00;;;;;;2255647;55;20989;-72
2021/07/25 13:31:41;;;;;;;3.12;1.42;;;30.00;52.90;;;;;;2247908;55;21075;-70
2021/07/25 13:34:09;;;;;;;3.53;1.80;;;30.00;52.80;;;;;;2466903;55;20971;-71
2021/07/25 13:36:36;;;;;;;3.72;1.48;;;30.00;52.30;;;;;;2248007;55;21390;-72
2021/07/25 13:39:03;;;;;;;3.10;1.77;;;30.00;52.30;;;;;;2484713;54;20984;-72
2021/07/25 13:41:32;;;;;;;2.72;1.42;;;30.00;52.40;;;;;;2463806;55;22027;-70
2021/07/25 13:44:01;;;;;;;2.97;1.30;;;30.00;52.10;;;;;;2269455;55;21073;-69
2021/07/25 13:46:41;;;;;;;2.85;1.55;;;30.00;52.10;;;;;;2251418;55;20946;-71
2021/07/25 13:49:11;;;;;;;3.10;1.25;;;30.00;52.10;;;;;;2247279;55;20967;-72
2021/07/25 13:51:37;;;;;;;2.50;1.27;;;30.10;52.10;;;;;;2241374;55;20951;-71